createdAt,value
2024-01-22T00:00:30.857Z,22.29
2024-01-22T00:01:30.809Z,22.29
2024-01-22T00:02:30.799Z,22.29
2024-01-22T00:03:30.856Z,22.29
2024-01-22T00:57:51.830Z,22.06
2024-01-22T00:58:31.099Z,22.11
2024-01-22T00:59:31.091Z,22.17
2024-01-22T01:00:31.093Z,22.19
2024-01-22T01:01:31.097Z,22.21
2024-01-22T01:02:31.099Z,22.24
2024-01-22T01:03:31.196Z,22.24
2024-01-22T01:04:31.195Z,22.25
2024-01-22T01:05:31.112Z,22.25
2024-01-22T01:06:31.105Z,22.25
2024-01-22T01:07:31.116Z,22.26
2024-01-22T01:08:31.111Z,22.27
2024-01-22T01:09:31.112Z,22.26
2024-01-22T01:10:31.116Z,22.27
2024-01-22T01:11:31.130Z,22.26
2024-01-22T01:12:31.116Z,22.27
2024-01-22T01:13:31.149Z,22.27
2024-01-22T01:14:31.127Z,22.27
2024-01-22T01:15:31.124Z,22.28
2024-01-22T01:16:31.120Z,22.27
2024-01-22T01:17:31.156Z,22.27
2024-01-22T01:18:31.277Z,22.27
2024-01-22T01:19:31.243Z,22.27
2024-01-22T01:20:31.133Z,22.27
2024-01-22T01:21:31.152Z,22.27
2024-01-22T01:22:31.125Z,22.27
2024-01-22T01:23:31.152Z,22.26
2024-01-22T01:24:31.134Z,22.27
2024-01-22T01:25:31.137Z,22.27
2024-01-22T01:26:31.137Z,22.26
2024-01-22T01:27:31.136Z,22.26
2024-01-22T01:28:31.132Z,22.26
2024-01-22T01:29:31.169Z,22.26
2024-01-22T01:30:31.221Z,22.26
2024-01-22T01:31:31.280Z,22.26
2024-01-22T01:32:31.460Z,22.26
2024-01-22T01:33:31.481Z,22.26
2024-01-22T01:34:31.644Z,22.26
2024-01-22T01:35:31.489Z,22.25
2024-01-22T01:36:31.549Z,22.25
2024-01-22T01:37:31.629Z,22.25
2024-01-22T01:38:31.659Z,22.25
2024-01-22T01:39:31.700Z,22.25
2024-01-22T01:40:31.745Z,22.25
2024-01-22T01:41:31.804Z,22.25
2024-01-22T01:42:31.868Z,22.24
2024-01-22T01:43:31.908Z,22.25
2024-01-22T01:44:31.969Z,22.24
2024-01-22T01:45:32.040Z,22.24
2024-01-22T01:46:32.072Z,22.25
2024-01-22T01:47:32.155Z,22.24
2024-01-22T01:48:32.302Z,22.24
2024-01-22T01:49:32.224Z,22.24
2024-01-22T01:50:32.272Z,22.25
2024-01-22T01:51:32.322Z,22.24
2024-01-22T01:52:32.391Z,22.24
2024-01-22T01:53:32.440Z,22.24
2024-01-22T01:54:32.478Z,22.23
2024-01-22T01:55:32.526Z,22.24
2024-01-22T01:56:32.586Z,22.25
2024-01-22T01:57:33.001Z,22.24
2024-01-22T01:58:32.706Z,22.25
2024-01-22T01:59:32.790Z,22.25
2024-01-22T02:00:33.057Z,22.24
2024-01-22T02:01:33.014Z,22.24
2024-01-22T02:02:33.005Z,22.24
2024-01-22T02:03:33.186Z,22.24
2024-01-22T02:04:33.061Z,22.25
2024-01-22T02:05:33.229Z,22.24
2024-01-22T02:06:33.139Z,22.24
2024-01-22T02:07:33.198Z,22.24
2024-01-22T02:08:33.352Z,22.24
2024-01-22T02:09:33.303Z,22.23
2024-01-22T02:10:33.369Z,22.23
2024-01-22T02:11:33.430Z,22.24
2024-01-22T02:12:33.476Z,22.24
2024-01-22T02:13:33.522Z,22.24
2024-01-22T02:14:33.628Z,22.23
2024-01-22T02:15:33.613Z,22.24
2024-01-22T02:16:33.679Z,22.23
2024-01-22T02:17:34.056Z,22.23
2024-01-22T02:18:33.939Z,22.23
2024-01-22T02:19:33.975Z,22.23
2024-01-22T02:20:33.956Z,22.24
2024-01-22T02:21:33.953Z,22.24
2024-01-22T02:22:34.026Z,22.24
2024-01-22T02:23:34.092Z,22.23
2024-01-22T02:24:34.120Z,22.23
2024-01-22T02:25:34.159Z,22.24
2024-01-22T02:26:36.621Z,22.23
2024-01-22T02:27:34.227Z,22.24
2024-01-22T02:28:34.213Z,22.23
2024-01-22T02:29:34.271Z,22.23
2024-01-22T02:30:34.218Z,22.24
2024-01-22T02:31:34.206Z,22.24
2024-01-22T02:32:34.287Z,22.24
2024-01-22T02:33:34.420Z,22.23
2024-01-22T02:34:34.251Z,22.24
2024-01-22T02:35:34.346Z,22.24
2024-01-22T02:36:34.212Z,22.24
2024-01-22T02:37:34.222Z,22.24
2024-01-22T02:38:34.236Z,22.25
2024-01-22T02:39:34.232Z,22.25
2024-01-22T02:40:34.241Z,22.25
2024-01-22T02:41:34.297Z,22.25
2024-01-22T02:42:34.234Z,22.25
2024-01-22T02:43:34.230Z,22.25
2024-01-22T02:44:34.269Z,22.25
2024-01-22T02:45:34.239Z,22.26
2024-01-22T02:46:34.240Z,22.25
2024-01-22T02:47:34.436Z,22.25
2024-01-22T02:48:34.381Z,22.25
2024-01-22T02:49:34.420Z,22.26
2024-01-22T02:50:34.278Z,22.26
2024-01-22T02:51:34.231Z,22.25
2024-01-22T02:52:34.239Z,22.24
2024-01-22T02:53:34.306Z,22.24
2024-01-22T02:54:34.345Z,22.25
2024-01-22T02:55:34.378Z,22.25
2024-01-22T02:56:34.482Z,22.25
2024-01-22T02:57:34.481Z,22.25
2024-01-22T02:58:35.103Z,22.26
2024-01-22T02:59:34.608Z,22.24
2024-01-22T03:00:34.719Z,22.25
2024-01-22T03:01:34.696Z,22.25
2024-01-22T03:02:34.793Z,22.25
2024-01-22T03:03:34.787Z,22.25
2024-01-22T03:04:34.885Z,22.25
2024-01-22T03:05:34.944Z,22.25
2024-01-22T03:06:35.007Z,22.25
2024-01-22T03:07:35.002Z,22.26
2024-01-22T03:08:35.083Z,22.26
2024-01-22T03:09:35.113Z,22.25
2024-01-22T03:10:35.148Z,22.25
2024-01-22T03:11:35.255Z,22.26
2024-01-22T03:12:35.266Z,22.26
2024-01-22T03:13:35.311Z,22.25
2024-01-22T03:14:35.404Z,22.25
2024-01-22T03:15:35.415Z,22.25
2024-01-22T03:16:35.472Z,22.25
2024-01-22T03:17:35.589Z,22.26
2024-01-22T03:18:35.724Z,22.26
2024-01-22T03:19:35.675Z,22.25
2024-01-22T03:20:35.727Z,22.25
2024-01-22T03:21:35.762Z,22.25
2024-01-22T03:22:35.846Z,22.25
2024-01-22T03:23:35.883Z,22.25
2024-01-22T03:24:35.909Z,22.26
2024-01-22T03:25:35.971Z,22.25
2024-01-22T03:26:36.097Z,22.25
2024-01-22T03:27:36.098Z,22.26
2024-01-22T03:28:36.125Z,22.25
2024-01-22T03:29:36.261Z,22.26
2024-01-22T03:30:36.251Z,22.25
2024-01-22T03:31:36.293Z,22.25
2024-01-22T03:32:36.472Z,22.25
2024-01-22T03:33:36.488Z,22.25
2024-01-22T03:34:36.555Z,22.25
2024-01-22T03:35:36.516Z,22.25
2024-01-22T03:36:36.560Z,22.24
2024-01-22T03:37:36.637Z,22.25
2024-01-22T03:38:36.706Z,22.25
2024-01-22T03:39:36.714Z,22.24
2024-01-22T03:40:36.810Z,22.24
2024-01-22T03:41:36.842Z,22.25
2024-01-22T03:42:36.873Z,22.24
2024-01-22T03:43:36.920Z,22.24
2024-01-22T03:44:37.001Z,22.23
2024-01-22T03:45:37.027Z,22.24
2024-01-22T03:46:37.079Z,22.23
2024-01-22T03:47:37.177Z,22.24
2024-01-22T03:48:37.268Z,22.24
2024-01-22T03:49:37.419Z,22.24
2024-01-22T03:50:37.416Z,22.23
2024-01-22T03:51:37.359Z,22.24
2024-01-22T03:52:37.418Z,22.24
2024-01-22T03:53:37.645Z,22.25
2024-01-22T03:54:37.534Z,22.25
2024-01-22T03:55:37.590Z,22.24
2024-01-22T03:56:37.649Z,22.26
2024-01-22T03:57:37.707Z,22.24
2024-01-22T03:58:37.750Z,22.24
2024-01-22T03:59:37.837Z,22.25
2024-01-22T04:00:37.878Z,22.24
2024-01-22T04:01:37.915Z,22.24
2024-01-22T04:02:38.112Z,22.24
2024-01-22T04:03:38.174Z,22.24
2024-01-22T04:04:38.072Z,22.24
2024-01-22T04:05:38.225Z,22.23
2024-01-22T04:06:38.355Z,22.24
2024-01-22T04:07:38.237Z,22.24
2024-01-22T04:08:38.294Z,22.23
2024-01-22T04:09:38.385Z,22.23
2024-01-22T04:10:38.472Z,22.23
2024-01-22T04:11:38.481Z,22.23
2024-01-22T04:12:38.524Z,22.22
2024-01-22T04:13:38.582Z,22.22
2024-01-22T04:14:38.662Z,22.22
2024-01-22T04:15:38.691Z,22.22
2024-01-22T04:16:38.744Z,22.23
2024-01-22T04:17:38.888Z,22.22
2024-01-22T04:18:38.986Z,22.21
2024-01-22T04:19:38.959Z,22.21
2024-01-22T04:20:38.996Z,22.21
2024-01-22T04:21:39.024Z,22.22
2024-01-22T04:22:39.099Z,22.21
2024-01-22T04:23:39.164Z,22.21
2024-01-22T04:24:39.195Z,22.21
2024-01-22T04:25:39.278Z,22.21
2024-01-22T04:26:39.306Z,22.21
2024-01-22T04:27:39.348Z,22.21
2024-01-22T04:28:39.418Z,22.21
2024-01-22T04:29:39.525Z,22.21
2024-01-22T04:30:41.834Z,22.22
2024-01-22T04:31:39.513Z,22.21
2024-01-22T04:32:39.687Z,22.21
2024-01-22T04:33:39.645Z,22.21
2024-01-22T04:34:39.515Z,22.21
2024-01-22T04:35:39.556Z,22.21
2024-01-22T04:36:39.518Z,22.21
2024-01-22T04:37:39.528Z,22.22
2024-01-22T04:38:39.556Z,22.21
2024-01-22T04:39:39.523Z,22.22
2024-01-22T04:40:39.521Z,22.22
2024-01-22T04:41:39.600Z,22.22
2024-01-22T04:42:39.526Z,22.21
2024-01-22T04:43:39.578Z,22.22
2024-01-22T04:44:39.624Z,22.21
2024-01-22T04:45:39.651Z,22.22
2024-01-22T04:46:39.709Z,22.22
2024-01-22T04:47:39.854Z,22.23
2024-01-22T04:48:39.915Z,22.22
2024-01-22T04:49:39.906Z,22.22
2024-01-22T04:50:47.191Z,22.19
2024-01-22T04:51:48.160Z,22.20
2024-01-22T04:52:48.157Z,22.20
2024-01-22T04:53:48.224Z,22.20
2024-01-22T04:54:48.161Z,22.22
2024-01-22T04:55:48.162Z,22.22
2024-01-22T04:56:48.279Z,22.22
2024-01-22T04:57:48.162Z,22.21
2024-01-22T04:58:48.164Z,22.22
2024-01-22T04:59:48.248Z,22.21
2024-01-22T05:00:48.230Z,22.21
2024-01-22T05:01:48.169Z,22.21
2024-01-22T05:02:48.297Z,22.21
2024-01-22T05:03:48.220Z,22.21
2024-01-22T05:04:48.182Z,22.22
2024-01-22T05:05:48.320Z,22.21
2024-01-22T05:06:48.324Z,22.21
2024-01-22T05:07:48.199Z,22.21
2024-01-22T05:08:48.299Z,22.21
2024-01-22T05:09:48.315Z,22.21
2024-01-22T05:10:48.386Z,22.21
2024-01-22T05:11:48.439Z,22.21
2024-01-22T05:12:48.498Z,22.21
2024-01-22T05:13:48.536Z,22.21
2024-01-22T05:14:48.634Z,22.21
2024-01-22T05:15:48.663Z,22.20
2024-01-22T05:16:48.711Z,22.20
2024-01-22T05:17:49.103Z,22.19
2024-01-22T05:18:49.016Z,22.19
2024-01-22T05:19:48.889Z,22.20
2024-01-22T05:20:48.915Z,22.19
2024-01-22T05:21:48.968Z,22.19
2024-01-22T05:22:49.039Z,22.19
2024-01-22T05:23:49.120Z,22.19
2024-01-22T05:24:49.173Z,22.18
2024-01-22T05:25:49.202Z,22.18
2024-01-22T05:26:49.303Z,22.18
2024-01-22T05:27:49.310Z,22.18
2024-01-22T05:28:49.406Z,22.18
2024-01-22T05:29:49.462Z,22.17
2024-01-22T05:30:49.490Z,22.18
2024-01-22T05:31:49.550Z,22.17
2024-01-22T05:32:53.121Z,22.18
2024-01-22T05:33:49.698Z,22.16
2024-01-22T05:34:49.749Z,22.17
2024-01-22T05:35:49.631Z,22.16
2024-01-22T05:36:49.613Z,22.16
2024-01-22T05:37:49.617Z,22.15
2024-01-22T05:38:49.701Z,22.16
2024-01-22T05:39:49.670Z,22.15
2024-01-22T05:40:49.624Z,22.15
2024-01-22T05:41:49.632Z,22.15
2024-01-22T05:42:49.638Z,22.15
2024-01-22T05:43:49.663Z,22.15
2024-01-22T05:44:49.770Z,22.15
2024-01-22T05:45:49.785Z,22.15
2024-01-22T05:46:49.855Z,22.14
2024-01-22T05:47:50.022Z,22.15
2024-01-22T05:48:50.056Z,22.15
2024-01-22T05:49:50.098Z,22.14
2024-01-22T05:50:50.164Z,22.15
2024-01-22T05:51:50.171Z,22.15
2024-01-22T05:52:50.224Z,22.14
2024-01-22T05:53:50.309Z,22.15
2024-01-22T05:54:50.385Z,22.15
2024-01-22T05:55:50.432Z,22.14
2024-01-22T05:56:51.124Z,22.15
2024-01-22T05:57:50.649Z,22.15
2024-01-22T05:58:50.711Z,22.15
2024-01-22T05:59:50.846Z,22.15
2024-01-22T06:00:50.968Z,22.15
2024-01-22T06:01:50.884Z,22.15
2024-01-22T06:02:51.029Z,22.15
2024-01-22T06:03:51.035Z,22.15
2024-01-22T06:04:51.048Z,22.14
2024-01-22T06:05:51.284Z,22.15
2024-01-22T06:06:51.290Z,22.15
2024-01-22T06:07:51.232Z,22.15
2024-01-22T06:08:51.356Z,22.15
2024-01-22T06:09:58.829Z,22.15
2024-01-22T06:10:51.370Z,22.15
2024-01-22T06:11:51.442Z,22.15
2024-01-22T06:12:51.823Z,22.15
2024-01-22T06:13:57.988Z,22.13
2024-01-22T06:14:51.429Z,22.10
2024-01-22T06:15:51.374Z,22.12
2024-01-22T06:16:51.400Z,22.12
2024-01-22T06:17:51.496Z,22.15
2024-01-22T06:18:51.941Z,22.16
2024-01-22T06:19:51.440Z,22.18
2024-01-22T06:20:51.428Z,22.19
2024-01-22T06:21:51.410Z,22.21
2024-01-22T06:22:51.381Z,22.22
2024-01-22T06:23:52.093Z,22.23
2024-01-22T06:24:51.786Z,22.24
2024-01-22T06:25:51.410Z,22.26
2024-01-22T06:26:51.419Z,22.28
2024-01-22T06:27:51.387Z,22.30
2024-01-22T06:28:51.403Z,22.31
2024-01-22T06:29:51.448Z,22.31
2024-01-22T06:30:51.396Z,22.33
2024-01-22T06:31:51.410Z,22.36
2024-01-22T06:32:52.024Z,22.37
2024-01-22T06:33:51.599Z,22.38
2024-01-22T06:34:51.592Z,22.37
2024-01-22T06:35:51.463Z,22.33
2024-01-22T06:36:51.481Z,22.29
2024-01-22T06:37:51.556Z,22.27
2024-01-22T06:38:51.877Z,22.27
2024-01-22T06:39:51.630Z,22.27
2024-01-22T06:40:53.252Z,22.29
2024-01-22T06:41:51.729Z,22.30
2024-01-22T06:42:51.802Z,22.16
2024-01-22T06:43:51.866Z,21.73
2024-01-22T06:44:51.771Z,21.44
2024-01-22T06:45:51.694Z,21.29
2024-01-22T06:46:51.720Z,21.26
2024-01-22T06:47:51.779Z,21.28
2024-01-22T06:48:51.956Z,21.31
2024-01-22T06:49:52.100Z,21.36
2024-01-22T06:50:52.098Z,21.46
2024-01-22T06:51:52.185Z,21.53
2024-01-22T06:52:52.049Z,21.59
2024-01-22T06:53:52.151Z,21.66
2024-01-22T06:54:52.051Z,21.75
2024-01-22T06:55:52.023Z,21.81
2024-01-22T06:56:52.195Z,21.89
2024-01-22T06:57:52.934Z,21.95
2024-01-22T06:58:53.987Z,22.00
2024-01-22T06:59:54.329Z,22.07
2024-01-22T07:00:51.999Z,22.13
2024-01-22T07:01:51.944Z,22.20
2024-01-22T07:02:59.499Z,22.28
2024-01-22T07:03:52.450Z,22.32
2024-01-22T07:05:23.890Z,22.39
2024-01-22T07:06:51.995Z,22.50
2024-01-22T07:07:51.965Z,22.56
2024-01-22T07:08:52.007Z,22.62
2024-01-22T07:09:51.960Z,22.66
2024-01-22T07:10:52.335Z,22.71
2024-01-22T07:11:52.033Z,22.76
2024-01-22T07:12:51.962Z,22.80
2024-01-22T07:13:51.964Z,22.84
2024-01-22T07:14:52.004Z,22.88
2024-01-22T07:15:51.995Z,22.92
2024-01-22T07:16:51.967Z,22.95
2024-01-22T07:17:52.073Z,23.00
2024-01-22T07:18:52.720Z,23.03
2024-01-22T07:19:52.035Z,23.06
2024-01-22T07:20:52.058Z,23.09
2024-01-22T07:21:51.993Z,23.12
2024-01-22T07:22:51.991Z,23.15
2024-01-22T07:23:55.554Z,23.18
2024-01-22T07:24:52.015Z,23.20
2024-01-22T07:25:52.027Z,23.23
2024-01-22T07:26:55.277Z,23.26
2024-01-22T07:27:52.345Z,23.29
2024-01-22T07:28:53.128Z,23.31
2024-01-22T07:29:52.092Z,23.34
2024-01-22T07:30:52.005Z,23.36
2024-01-22T07:31:52.016Z,23.38
2024-01-22T07:32:52.406Z,23.40
2024-01-22T07:33:52.487Z,23.42
2024-01-22T07:34:52.184Z,23.44
2024-01-22T07:35:52.264Z,23.46
2024-01-22T07:36:52.289Z,23.49
2024-01-22T07:37:52.310Z,23.50
2024-01-22T07:38:52.856Z,23.53
2024-01-22T07:39:52.420Z,23.54
2024-01-22T07:40:54.085Z,23.56
2024-01-22T07:41:52.505Z,23.57
2024-01-22T07:42:52.885Z,23.58
2024-01-22T07:43:52.460Z,23.61
2024-01-22T07:44:52.504Z,23.63
2024-01-22T07:45:52.461Z,23.64
2024-01-22T07:46:52.469Z,23.66
2024-01-22T07:47:52.963Z,23.68
2024-01-22T07:48:52.605Z,23.69
2024-01-22T07:49:52.519Z,23.70
2024-01-22T07:50:52.507Z,23.73
2024-01-22T07:51:53.485Z,23.75
2024-01-22T07:52:52.894Z,23.76
2024-01-22T07:53:52.497Z,23.79
2024-01-22T07:54:52.484Z,23.80
2024-01-22T07:55:52.470Z,23.81
2024-01-22T07:56:52.510Z,23.83
2024-01-22T07:57:52.852Z,23.83
2024-01-22T07:58:52.484Z,23.85
2024-01-22T07:59:52.586Z,23.85
2024-01-22T08:00:52.525Z,23.87
2024-01-22T08:01:52.866Z,23.88
2024-01-22T08:02:52.928Z,23.89
2024-01-22T08:04:08.143Z,23.83
2024-01-22T08:04:52.494Z,23.75
2024-01-22T08:05:52.607Z,23.67
2024-01-22T08:06:52.612Z,23.62
2024-01-22T08:07:52.499Z,23.61
2024-01-22T08:08:52.546Z,23.63
2024-01-22T08:09:55.713Z,23.64
2024-01-22T08:10:52.509Z,23.66
2024-01-22T08:11:52.640Z,23.68
2024-01-22T08:12:52.859Z,23.70
2024-01-22T08:13:52.506Z,23.72
2024-01-22T08:14:52.535Z,23.75
2024-01-22T08:15:52.507Z,23.78
2024-01-22T08:16:52.511Z,23.81
2024-01-22T08:17:52.917Z,23.83
2024-01-22T08:18:52.685Z,23.86
2024-01-22T08:19:52.538Z,23.88
2024-01-22T08:20:52.547Z,23.90
2024-01-22T08:21:52.510Z,23.92
2024-01-22T08:22:52.868Z,23.93
2024-01-22T08:23:52.556Z,23.96
2024-01-22T08:24:52.542Z,23.98
2024-01-22T08:25:52.583Z,24.00
2024-01-22T08:26:52.541Z,24.02
2024-01-22T08:27:52.872Z,24.03
2024-01-22T08:28:52.901Z,24.05
2024-01-22T08:29:52.543Z,24.07
2024-01-22T08:30:52.864Z,24.09
2024-01-22T08:31:52.536Z,24.09
2024-01-22T08:32:53.097Z,24.08
2024-01-22T08:33:53.126Z,24.02
2024-01-22T08:34:52.928Z,23.39
2024-01-22T08:35:53.192Z,23.01
2024-01-22T08:36:52.713Z,22.81
2024-01-22T08:37:53.483Z,22.77
2024-01-22T08:38:55.994Z,22.80
2024-01-22T08:39:56.038Z,22.83
2024-01-22T08:40:52.667Z,22.90
2024-01-22T08:41:52.926Z,22.97
2024-01-22T08:42:52.894Z,23.04
2024-01-22T08:43:52.534Z,23.11
2024-01-22T08:44:52.566Z,23.18
2024-01-22T08:45:52.566Z,23.23
2024-01-22T08:46:52.872Z,23.29
2024-01-22T08:47:52.915Z,23.34
2024-01-22T08:48:52.691Z,23.33
2024-01-22T08:49:52.722Z,23.35
2024-01-22T08:50:52.721Z,23.38
2024-01-22T08:51:52.870Z,23.40
2024-01-22T08:52:52.801Z,23.40
2024-01-22T08:53:53.032Z,23.34
2024-01-22T08:54:52.974Z,23.29
2024-01-22T08:55:54.850Z,23.25
2024-01-22T08:56:52.913Z,23.24
2024-01-22T08:57:52.873Z,23.25
2024-01-22T08:58:53.026Z,23.28
2024-01-22T08:59:53.379Z,23.32
2024-01-22T09:00:52.896Z,23.36
2024-01-22T09:01:52.922Z,23.41
2024-01-22T09:02:53.661Z,23.46
2024-01-22T09:03:52.962Z,23.51
2024-01-22T09:04:52.911Z,23.55
2024-01-22T09:05:52.954Z,23.60
2024-01-22T09:06:53.403Z,23.65
2024-01-22T09:07:53.844Z,23.70
2024-01-22T09:09:00.355Z,23.73
2024-01-22T09:09:52.900Z,23.77
2024-01-22T09:10:52.898Z,23.80
2024-01-22T09:11:54.421Z,23.83
2024-01-22T09:12:53.385Z,23.86
2024-01-22T09:13:53.066Z,23.89
2024-01-22T09:14:53.023Z,23.91
2024-01-22T09:15:53.017Z,23.94
2024-01-22T09:16:53.023Z,23.96
2024-01-22T09:17:53.546Z,23.99
2024-01-22T09:18:53.157Z,24.01
2024-01-22T09:19:53.189Z,24.04
2024-01-22T09:20:53.173Z,24.05
2024-01-22T09:21:53.125Z,24.07
2024-01-22T09:22:53.393Z,24.09
2024-01-22T09:23:53.169Z,24.11
2024-01-22T09:24:53.182Z,24.12
2024-01-22T09:25:53.174Z,24.14
2024-01-22T09:26:53.239Z,24.15
2024-01-22T09:27:53.461Z,24.16
2024-01-22T09:28:53.618Z,24.17
2024-01-22T09:29:56.446Z,24.18
2024-01-22T09:30:53.520Z,24.19
2024-01-22T09:31:53.223Z,24.20
2024-01-22T09:32:53.474Z,24.21
2024-01-22T09:33:53.521Z,24.23
2024-01-22T09:34:53.235Z,24.24
2024-01-22T09:35:53.249Z,24.26
2024-01-22T09:37:08.813Z,24.27
2024-01-22T09:37:53.286Z,24.25
2024-01-22T09:38:53.417Z,24.27
2024-01-22T09:39:53.449Z,24.28
2024-01-22T09:40:53.255Z,24.27
2024-01-22T09:42:00.707Z,24.25
2024-01-22T09:42:53.397Z,24.21
2024-01-22T09:43:53.269Z,24.18
2024-01-22T09:44:53.332Z,24.15
2024-01-22T09:45:53.246Z,24.11
2024-01-22T09:46:53.238Z,24.08
2024-01-22T09:47:53.539Z,24.04
2024-01-22T09:48:53.487Z,24.01
2024-01-22T09:50:00.677Z,23.96
2024-01-22T09:50:53.278Z,23.92
2024-01-22T09:51:53.411Z,23.89
2024-01-22T09:52:53.240Z,23.86
2024-01-22T09:53:53.338Z,23.83
2024-01-22T09:54:53.387Z,23.80
2024-01-22T09:55:53.421Z,23.79
2024-01-22T09:56:56.459Z,23.77
2024-01-22T09:57:53.412Z,23.74
2024-01-22T09:58:53.412Z,23.72
2024-01-22T09:59:53.973Z,23.70
2024-01-22T10:00:53.339Z,23.67
2024-01-22T10:01:53.246Z,23.65
2024-01-22T10:02:53.279Z,23.62
2024-01-22T10:03:54.400Z,23.60
2024-01-22T10:04:53.261Z,23.59
2024-01-22T10:05:53.397Z,23.57
2024-01-22T10:06:53.485Z,23.56
2024-01-22T10:07:53.271Z,23.53
2024-01-22T10:08:53.294Z,23.51
2024-01-22T10:09:53.250Z,23.49
2024-01-22T10:10:53.319Z,23.48
2024-01-22T10:11:53.438Z,23.46
2024-01-22T10:12:53.469Z,23.44
2024-01-22T10:13:53.495Z,23.43
2024-01-22T10:14:53.653Z,23.42
2024-01-22T10:15:53.659Z,23.40
2024-01-22T10:16:53.677Z,23.40
2024-01-22T10:17:53.844Z,23.38
2024-01-22T10:18:53.997Z,23.37
2024-01-22T10:19:55.035Z,23.36
2024-01-22T10:20:55.487Z,23.34
2024-01-22T10:21:54.063Z,23.32
2024-01-22T10:22:54.426Z,23.31
2024-01-22T10:23:54.267Z,23.30
2024-01-22T10:24:54.317Z,23.30
2024-01-22T10:25:54.320Z,23.28
2024-01-22T10:26:54.375Z,23.27
2024-01-22T10:27:54.943Z,23.26
2024-01-22T10:28:54.697Z,23.25
2024-01-22T10:29:55.643Z,23.25
2024-01-22T10:30:54.912Z,23.24
2024-01-22T10:31:55.680Z,23.23
2024-01-22T10:32:54.803Z,23.23
2024-01-22T10:33:55.053Z,23.22
2024-01-22T10:34:55.117Z,23.21
2024-01-22T10:35:55.108Z,23.21
2024-01-22T10:36:54.867Z,23.21
2024-01-22T10:37:54.960Z,23.19
2024-01-22T10:38:55.937Z,23.19
2024-01-22T10:39:55.440Z,23.19
2024-01-22T10:40:54.978Z,23.17
2024-01-22T10:41:56.834Z,23.18
2024-01-22T10:42:55.046Z,23.17
2024-01-22T10:43:55.211Z,23.17
2024-01-22T10:44:55.035Z,23.16
2024-01-22T10:45:55.480Z,23.17
2024-01-22T10:46:55.022Z,23.16
2024-01-22T10:47:57.977Z,23.16
2024-01-22T10:48:55.634Z,23.15
2024-01-22T10:49:55.469Z,23.16
2024-01-22T10:50:55.453Z,23.15
2024-01-22T10:51:55.418Z,23.15
2024-01-22T10:52:55.489Z,23.15
2024-01-22T10:53:55.673Z,23.14
2024-01-22T10:54:55.530Z,23.14
2024-01-22T10:55:55.506Z,23.13
2024-01-22T10:56:55.537Z,23.13
2024-01-22T10:57:55.610Z,23.12
2024-01-22T10:58:55.524Z,23.11
2024-01-22T10:59:56.112Z,23.11
2024-01-22T11:00:55.604Z,23.11
2024-01-22T11:01:55.931Z,23.10
2024-01-22T11:02:58.797Z,23.10
2024-01-22T11:03:57.957Z,23.09
2024-01-22T11:04:56.444Z,23.09
2024-01-22T11:05:55.587Z,23.08
2024-01-22T11:06:55.562Z,23.09
2024-01-22T11:07:55.553Z,23.08
2024-01-22T11:08:56.284Z,23.08
2024-01-22T11:09:58.443Z,23.07
2024-01-22T11:10:58.762Z,23.07
2024-01-22T11:11:55.564Z,23.07
2024-01-22T11:12:55.942Z,23.06
2024-01-22T11:13:55.941Z,23.07
2024-01-22T11:14:55.657Z,23.06
2024-01-22T11:15:55.967Z,23.06
2024-01-22T11:16:55.584Z,23.06
2024-01-22T11:17:55.738Z,23.06
2024-01-22T11:18:55.782Z,23.05
2024-01-22T11:19:55.615Z,23.05
2024-01-22T11:20:55.982Z,23.05
2024-01-22T11:21:57.304Z,23.03
2024-01-22T11:22:55.571Z,23.02
2024-01-22T11:24:27.771Z,23.01
2024-01-22T11:24:55.584Z,23.02
2024-01-22T11:25:56.594Z,23.06
2024-01-22T11:26:55.612Z,23.10
2024-01-22T11:27:56.792Z,23.14
2024-01-22T11:28:55.945Z,23.20
2024-01-22T11:29:55.660Z,23.26
2024-01-22T11:30:55.588Z,23.31
2024-01-22T11:31:55.627Z,23.35
2024-01-22T11:32:55.703Z,23.42
2024-01-22T11:33:57.509Z,23.46
2024-01-22T11:34:55.698Z,23.51
2024-01-22T11:35:55.632Z,23.56
2024-01-22T11:36:55.703Z,23.61
2024-01-22T11:37:55.601Z,23.65
2024-01-22T11:38:56.001Z,23.69
2024-01-22T11:39:57.886Z,23.72
2024-01-22T11:40:55.588Z,23.75
2024-01-22T11:41:55.678Z,23.78
2024-01-22T11:42:55.668Z,23.81
2024-01-22T11:43:55.934Z,23.83
2024-01-22T11:44:55.961Z,23.85
2024-01-22T11:45:57.089Z,23.87
2024-01-22T11:46:55.763Z,23.89
2024-01-22T11:47:55.788Z,23.92
2024-01-22T11:48:57.129Z,23.95
2024-01-22T11:49:55.884Z,23.98
2024-01-22T11:50:56.502Z,24.00
2024-01-22T11:51:55.882Z,24.02
2024-01-22T11:52:55.981Z,24.03
2024-01-22T11:53:56.914Z,24.05
2024-01-22T11:54:56.002Z,24.06
2024-01-22T11:55:56.018Z,24.09
2024-01-22T11:56:56.571Z,24.10
2024-01-22T11:57:56.034Z,24.12
2024-01-22T11:58:56.092Z,24.14
2024-01-22T11:59:56.067Z,24.16
2024-01-22T12:00:56.097Z,24.18
2024-01-22T12:01:56.544Z,24.20
2024-01-22T12:02:56.467Z,24.21
2024-01-22T12:03:59.148Z,24.23
2024-01-22T12:04:56.444Z,24.24
2024-01-22T12:05:56.091Z,24.26
2024-01-22T12:06:56.138Z,24.27
2024-01-22T12:07:57.812Z,24.29
2024-01-22T12:09:00.486Z,24.31
2024-01-22T12:09:56.031Z,24.31
2024-01-22T12:10:56.050Z,24.32
2024-01-22T12:11:56.522Z,24.39
2024-01-22T12:12:56.982Z,24.44
2024-01-22T12:13:57.935Z,24.45
2024-01-22T12:14:56.209Z,24.41
2024-01-22T12:15:56.067Z,24.37
2024-01-22T12:16:56.068Z,24.32
2024-01-22T12:17:56.232Z,24.26
2024-01-22T12:18:56.506Z,24.20
2024-01-22T12:19:58.472Z,24.15
2024-01-22T12:20:56.509Z,24.07
2024-01-22T12:21:56.074Z,24.01
2024-01-22T12:22:56.124Z,23.95
2024-01-22T12:23:56.483Z,23.91
2024-01-22T12:24:56.047Z,23.85
2024-01-22T12:26:00.575Z,23.81
2024-01-22T12:26:56.197Z,23.76
2024-01-22T12:27:56.071Z,23.72
2024-01-22T12:28:56.454Z,23.69
2024-01-22T12:29:56.056Z,23.66
2024-01-22T12:30:56.057Z,23.62
2024-01-22T12:31:56.057Z,23.59
2024-01-22T12:32:56.243Z,23.57
2024-01-22T12:33:56.597Z,23.54
2024-01-22T12:34:56.157Z,23.51
2024-01-22T12:35:56.120Z,23.50
2024-01-22T12:36:56.056Z,23.47
2024-01-22T12:37:56.075Z,23.46
2024-01-22T12:38:56.587Z,23.44
2024-01-22T12:39:56.458Z,23.43
2024-01-22T12:40:56.470Z,23.41
2024-01-22T12:41:56.162Z,23.40
2024-01-22T12:42:56.118Z,23.39
2024-01-22T12:43:56.092Z,23.37
2024-01-22T12:44:56.497Z,23.35
2024-01-22T12:45:56.073Z,23.35
2024-01-22T12:46:56.077Z,23.33
2024-01-22T12:47:56.206Z,23.31
2024-01-22T12:48:57.242Z,23.30
2024-01-22T12:49:56.273Z,23.30
2024-01-22T12:50:56.475Z,23.28
2024-01-22T12:51:56.137Z,23.28
2024-01-22T12:52:56.204Z,23.27
2024-01-22T12:53:56.555Z,23.27
2024-01-22T12:54:56.179Z,23.26
2024-01-22T12:55:56.139Z,23.25
2024-01-22T12:56:56.805Z,23.24
2024-01-22T12:57:56.485Z,23.23
2024-01-22T12:58:56.154Z,23.22
2024-01-22T12:59:56.160Z,23.21
2024-01-22T13:00:56.402Z,23.21
2024-01-22T13:01:56.419Z,23.20
2024-01-22T13:02:56.589Z,23.19
2024-01-22T13:03:57.022Z,23.18
2024-01-22T13:04:56.714Z,23.18
2024-01-22T13:05:56.847Z,23.17
2024-01-22T13:06:56.968Z,23.17
2024-01-22T13:07:56.899Z,23.16
2024-01-22T13:08:57.028Z,23.16
2024-01-22T13:09:57.017Z,23.16
2024-01-22T13:10:57.128Z,23.15
2024-01-22T13:11:57.200Z,23.13
2024-01-22T13:12:57.201Z,23.12
2024-01-22T13:13:57.473Z,23.12
2024-01-22T13:14:57.366Z,23.10
2024-01-22T13:16:11.532Z,23.10
2024-01-22T13:16:57.403Z,23.08
2024-01-22T13:17:57.469Z,23.07
2024-01-22T13:18:57.636Z,23.07
2024-01-22T13:19:57.419Z,23.06
2024-01-22T13:20:57.425Z,23.05
2024-01-22T13:21:57.513Z,23.04
2024-01-22T13:22:57.421Z,23.04
2024-01-22T13:23:57.516Z,23.04
2024-01-22T13:24:57.426Z,23.02
2024-01-22T13:25:57.427Z,23.02
2024-01-22T13:26:57.481Z,23.00
2024-01-22T13:27:57.432Z,23.00
2024-01-22T13:28:57.486Z,22.99
2024-01-22T13:29:57.507Z,22.98
2024-01-22T13:30:57.438Z,22.97
2024-01-22T13:31:57.443Z,22.97
2024-01-22T13:32:57.579Z,22.95
2024-01-22T13:33:57.631Z,22.95
2024-01-22T13:34:57.501Z,22.94
2024-01-22T13:35:57.491Z,22.93
2024-01-22T13:36:57.501Z,22.93
2024-01-22T13:37:57.444Z,22.93
2024-01-22T13:38:57.532Z,22.92
2024-01-22T13:39:57.582Z,22.91
2024-01-22T13:40:57.723Z,22.91
2024-01-22T13:41:57.750Z,22.90
2024-01-22T13:42:57.820Z,22.89
2024-01-22T13:43:57.853Z,22.89
2024-01-22T13:44:58.016Z,22.88
2024-01-22T13:45:57.970Z,22.87
2024-01-22T13:46:58.033Z,22.87